LIED/DCI METAR and TAF weather

Enter ICAO airport designator
Station Type Date Time Source
LIED METAR 2018/12/13 21:55 UTC NOAA

LIED 132155Z 11006KT 8000 FEW010 SCT060 13/11 Q1006 RMK OVC BKN110 VIS MIN 8000 WIND THR35 /////KT WIND THR17 /////KT BLU


Station Type Date Time Source
LIED Decoded METAR 2018/12/13 21:55 UTC NOAA

Decimomannu, Italy (LIED) 39-21N 008-58E 28M
Dec 13, 2018 - 04:55 PM EST / 2018.12.13 2155 UTC
Wind: from the ESE (110 degrees) at 7 MPH (6 KT):0
Visibility: 4 mile(s):0
Sky conditions: partly cloudy
Temperature: 55 F (13 C)
Dew Point: 51 F (11 C)
Relative Humidity: 87%
Pressure (altimeter): 29.71 in. Hg (1006 hPa)
ob: LIED 132155Z 11006KT 8000 FEW010 SCT060 13/11 Q1006 RMK OVC BKN110 VIS MIN 8000 WIND THR35 /////KT WIND THR17 /////KT BLU
cycle: 22

Station Type Date Time Source
LIED TAF 2015/03/04 18:18 UTC NOAA

TAF TAF LIED 041700Z 0418/0506 33014KT 9999 SCT020 BKN040 BKN060
TEMPO 0420/0502 33020KT 5000 RA OR SHRA FEW022CB


Example: see airport list